ADDS METAR Data INFO
IDs: Format: Raw Decoded Include TAF

Data at: 1058 UTC 24 Nov 2017

KHQZ 241055Z AUTO 16005KT 10SM CLR 05/00 A2997 RMK AO1 T00471005
KHQZ 241035Z AUTO 15005KT 10SM CLR 05/M01 A2997 RMK AO1 T00451009
KHQZ 241015Z AUTO 15005KT 10SM CLR 04/M01 A2998 RMK AO1 T00411007
KHQZ 240955Z AUTO 16004KT 10SM CLR 05/00 A2999 RMK AO1 T00500001
KHQZ 240935Z AUTO 17003KT 10SM CLR 05/01 A2999 RMK AO1 T00500005
KHQZ 240915Z AUTO 15003KT 10SM CLR 04/00 A2999 RMK AO1 T00430000
KHQZ 240855Z AUTO 14003KT 10SM CLR 05/M01 A3000 RMK AO1 T00451008
KHQZ 240835Z AUTO 14003KT 10SM CLR 05/00 A3001 RMK AO1 T00501002
KHQZ 240815Z AUTO 16003KT 10SM CLR 05/M01 A3001 RMK AO1 T00471007
KHQZ 240755Z AUTO 15004KT 10SM CLR 05/M01 A3002 RMK AO1 T00511010
KHQZ 240735Z AUTO 16003KT 10SM CLR 06/00 A3002 RMK AO1 T00620000
KHQZ 240715Z AUTO 17003KT 10SM CLR 06/00 A3002 RMK AO1 T00640000
KHQZ 240655Z AUTO 17003KT 10SM CLR 06/00 A3003 RMK AO1 T00640000
KHQZ 240635Z AUTO 15005KT 10SM CLR 06/M02 A3003 RMK AO1 T00601018
KHQZ 240615Z AUTO 17004KT 10SM CLR 07/00 A3004 RMK AO1 T00681003
KHQZ 240555Z AUTO 17004KT 10SM CLR 07/00 A3005 RMK AO1 T00720000 10130 20066 401881007
KHQZ 240535Z AUTO 16004KT 10SM CLR 07/00 A3005 RMK AO1 T00681003
KHQZ 240515Z AUTO 16003KT 10SM CLR 08/00 A3005 RMK AO1 T00780000
KHQZ 240455Z AUTO 17003KT 10SM CLR 08/00 A3006 RMK AO1 T00811001
KHQZ 240435Z AUTO 16004KT 10SM CLR 08/00 A3006 RMK AO1 T00830000
KHQZ 240415Z AUTO 17004KT 10SM CLR 09/00 A3006 RMK AO1 T00890000
KHQZ 240355Z AUTO 17004KT 10SM CLR 09/00 A3006 RMK AO1 T00921001
KHQZ 240335Z AUTO 17004KT 10SM CLR 09/00 A3006 RMK AO1 T00911001
KHQZ 240315Z AUTO 16003KT 10SM CLR 09/M01 A3006 RMK AO1 T00901006
KHQZ 240255Z AUTO 15004KT 10SM CLR 10/00 A3006 RMK AO1 T00951003
KHQZ 240150Z 13004KT 10SM CLR 11/M02 A3007
KHQZ 240050Z 13005KT 10SM CLR 12/M03 A3006
KHQZ 232350Z 14004KT 10SM CLR 13/M04 A3006
KHQZ 232250Z 14005KT 10SM CLR 18/M03 A3007
KHQZ 232150Z 15005KT 10SM CLR 19/M03 A3007
KHQZ 232050Z 16005KT 10SM CLR 18/M03 A3007
KHQZ 231950Z 00000KT 10SM CLR 17/M04 A3009
KHQZ 231850Z 19006KT 10SM CLR 16/M04 A3012
KHQZ 231750Z 20004KT 10SM CLR 14/M04 A3017
KHQZ 231650Z 19005KT 10SM CLR 13/M04 A3021
KHQZ 231550Z COR 17004KT 10SM CLR 06/M01 A3022
KHQZ 231450Z 00000KT 10SM CLR 06/-01 A3022
KHQZ 231350Z COR 00000KT 10SM CLR 01/-01 A3021
KHQZ 231235Z AUTO 00000KT 10SM CLR 00/M01 A3020 RMK AO1 T00031012
KHQZ 231215Z AUTO 00000KT 10SM CLR 00/M02 A3020 RMK AO1 T00011016
KHQZ 231155Z AUTO 00000KT 10SM CLR 00/M01 A3020 RMK AO1 T00031015 10031 21007
KHQZ 231135Z AUTO 00000KT 10SM CLR M01/M02 A3020 RMK AO1 T10071019
KHQZ 231115Z AUTO 00000KT 10SM CLR 00/M01 A3021 RMK AO1 T00001010
KHQZ 231055Z AUTO 00000KT 10SM CLR 00/M01 A3021 RMK AO1 T00031007
KHQZ 231035Z AUTO 00000KT 10SM CLR 00/M02 A3021 RMK AO1 T00031017
KHQZ 231015Z AUTO 00000KT 10SM CLR 00/M02 A3021 RMK AO1 T00001016
KHQZ 230955Z AUTO 00000KT 10SM CLR 00/M03 A3022 RMK AO1 T10051029
KHQZ 230935Z AUTO 00000KT 10SM CLR 01/M01 A3022 RMK AO1 T00111010
KHQZ 230915Z AUTO 00000KT 10SM CLR 00/M02 A3022 RMK AO1 T00011017
KHQZ 230855Z AUTO 00000KT 10SM CLR 00/M02 A3023 RMK AO1 T00041016
KHQZ 230835Z AUTO 00000KT 10SM CLR 01/M02 A3023 RMK AO1 T00111023
KHQZ 230815Z AUTO 00000KT 10SM CLR 02/M01 A3024 RMK AO1 T00221013
KHQZ 230755Z AUTO 00000KT 10SM CLR 02/M01 A3024 RMK AO1 T00161014
KHQZ 230735Z AUTO 00000KT 10SM CLR 03/M01 A3025 RMK AO1 T00251013
KHQZ 230715Z AUTO 00000KT 10SM CLR 03/M01 A3025 RMK AO1 T00301011
KHQZ 230655Z AUTO 00000KT 10SM CLR 03/M02 A3026 RMK AO1 T00301017
KHQZ 230635Z AUTO 00000KT 10SM CLR 03/M02 A3026 RMK AO1 T00251022
KHQZ 230615Z AUTO 00000KT 10SM CLR 03/M02 A3027 RMK AO1 T00271018
KHQZ 230555Z AUTO 00000KT 10SM CLR 02/M01 A3027 RMK AO1 T00221010 10081 20010 401210010
KHQZ 230535Z AUTO 00000KT 10SM CLR 01/M04 A3027 RMK AO1 T00121039
KHQZ 230515Z AUTO 00000KT 10SM CLR 04/M03 A3027 RMK AO1 T00391026
KHQZ 230455Z AUTO 00000KT 10SM CLR 04/M02 A3027 RMK AO1 T00401024
KHQZ 230435Z AUTO 00000KT 10SM CLR 04/M03 A3027 RMK AO1 T00351030
KHQZ 230415Z AUTO 00000KT 10SM CLR 04/M03 A3028 RMK AO1 T00411035
KHQZ 230355Z AUTO 00000KT 10SM CLR 03/M03 A3029 RMK AO1 T00331031
KHQZ 230335Z AUTO 00000KT 10SM CLR 06/M05 A3029 RMK AO1 T00641050
KHQZ 230315Z AUTO 00000KT 10SM CLR 06/M05 A3028 RMK AO1 T00551055
KHQZ 230255Z AUTO 00000KT 10SM CLR 04/M05 A3028 RMK AO1 T00431054
KHQZ 230150Z 32004KT 10SM CLR 07/M06 A3028
KHQZ 230050Z 32005KT 10SM CLR 07/M06 A3028
KHQZ 222350Z 32005KT 10SM CLR 08/M07 A3029